sensor_id;sensor_type;location;lat;lon;timestamp;P1;durP1;ratioP1;P2;durP2;ratioP2
58338;SDS011;68636;52.704;6.536;2023-05-07T00:01:42;27.67;;;15.48;;
58338;SDS011;68636;52.704;6.536;2023-05-07T00:04:08;25.10;;;14.25;;
58338;SDS011;68636;52.704;6.536;2023-05-07T00:06:34;22.70;;;13.88;;
58338;SDS011;68636;52.704;6.536;2023-05-07T00:08:59;24.17;;;13.25;;
58338;SDS011;68636;52.704;6.536;2023-05-07T00:11:26;22.60;;;13.48;;
58338;SDS011;68636;52.704;6.536;2023-05-07T00:13:53;26.20;;;13.70;;
58338;SDS011;68636;52.704;6.536;2023-05-07T00:16:19;25.13;;;13.47;;
58338;SDS011;68636;52.704;6.536;2023-05-07T00:18:44;22.90;;;12.75;;
58338;SDS011;68636;52.704;6.536;2023-05-07T00:21:10;22.73;;;12.23;;
58338;SDS011;68636;52.704;6.536;2023-05-07T00:23:36;24.05;;;12.30;;
58338;SDS011;68636;52.704;6.536;2023-05-07T00:26:02;21.17;;;11.45;;
58338;SDS011;68636;52.704;6.536;2023-05-07T00:28:28;19.63;;;11.48;;
58338;SDS011;68636;52.704;6.536;2023-05-07T00:30:54;21.00;;;11.95;;
58338;SDS011;68636;52.704;6.536;2023-05-07T00:33:20;21.40;;;11.52;;
58338;SDS011;68636;52.704;6.536;2023-05-07T00:35:47;18.83;;;11.20;;
58338;SDS011;68636;52.704;6.536;2023-05-07T00:38:13;19.15;;;10.90;;
58338;SDS011;68636;52.704;6.536;2023-05-07T00:40:38;20.08;;;10.82;;
58338;SDS011;68636;52.704;6.536;2023-05-07T00:43:04;18.45;;;10.30;;
58338;SDS011;68636;52.704;6.536;2023-05-07T00:45:30;21.67;;;10.82;;
58338;SDS011;68636;52.704;6.536;2023-05-07T00:47:57;18.92;;;10.93;;
58338;SDS011;68636;52.704;6.536;2023-05-07T00:50:27;18.10;;;10.65;;
58338;SDS011;68636;52.704;6.536;2023-05-07T00:52:53;20.27;;;11.05;;
58338;SDS011;68636;52.704;6.536;2023-05-07T00:55:20;19.63;;;10.53;;
58338;SDS011;68636;52.704;6.536;2023-05-07T00:57:47;18.55;;;10.55;;
58338;SDS011;68636;52.704;6.536;2023-05-07T01:00:13;21.35;;;11.00;;
58338;SDS011;68636;52.704;6.536;2023-05-07T01:02:39;18.17;;;10.60;;
58338;SDS011;68636;52.704;6.536;2023-05-07T01:05:06;21.20;;;10.82;;
58338;SDS011;68636;52.704;6.536;2023-05-07T01:07:34;19.75;;;11.15;;
58338;SDS011;68636;52.704;6.536;2023-05-07T01:10:00;20.67;;;11.90;;
58338;SDS011;68636;52.704;6.536;2023-05-07T01:12:27;20.60;;;10.70;;
58338;SDS011;68636;52.704;6.536;2023-05-07T01:14:54;19.55;;;11.98;;
58338;SDS011;68636;52.704;6.536;2023-05-07T01:17:20;20.65;;;11.70;;
58338;SDS011;68636;52.704;6.536;2023-05-07T01:19:46;19.70;;;11.77;;
58338;SDS011;68636;52.704;6.536;2023-05-07T01:22:13;21.50;;;11.20;;
58338;SDS011;68636;52.704;6.536;2023-05-07T01:24:41;19.80;;;11.90;;
58338;SDS011;68636;52.704;6.536;2023-05-07T01:27:08;20.50;;;12.70;;
58338;SDS011;68636;52.704;6.536;2023-05-07T01:29:33;21.35;;;12.93;;
58338;SDS011;68636;52.704;6.536;2023-05-07T01:32:00;23.02;;;12.70;;
58338;SDS011;68636;52.704;6.536;2023-05-07T01:34:28;25.33;;;13.43;;
58338;SDS011;68636;52.704;6.536;2023-05-07T01:36:56;22.60;;;13.00;;
58338;SDS011;68636;52.704;6.536;2023-05-07T01:39:24;23.20;;;13.00;;
58338;SDS011;68636;52.704;6.536;2023-05-07T01:41:52;23.45;;;13.98;;
58338;SDS011;68636;52.704;6.536;2023-05-07T01:44:20;30.17;;;14.82;;
58338;SDS011;68636;52.704;6.536;2023-05-07T01:46:47;27.25;;;15.23;;
58338;SDS011;68636;52.704;6.536;2023-05-07T01:49:13;26.70;;;15.48;;
58338;SDS011;68636;52.704;6.536;2023-05-07T01:51:39;28.27;;;15.20;;
58338;SDS011;68636;52.704;6.536;2023-05-07T01:54:05;26.03;;;14.63;;
58338;SDS011;68636;52.704;6.536;2023-05-07T01:56:31;24.77;;;15.15;;
58338;SDS011;68636;52.704;6.536;2023-05-07T01:58:57;27.48;;;15.43;;
58338;SDS011;68636;52.704;6.536;2023-05-07T02:01:23;27.63;;;15.43;;
58338;SDS011;68636;52.704;6.536;2023-05-07T02:03:49;24.65;;;14.90;;
58338;SDS011;68636;52.704;6.536;2023-05-07T02:06:14;27.30;;;14.95;;
58338;SDS011;68636;52.704;6.536;2023-05-07T02:08:40;26.08;;;15.32;;
58338;SDS011;68636;52.704;6.536;2023-05-07T02:11:06;24.90;;;14.82;;
58338;SDS011;68636;52.704;6.536;2023-05-07T02:13:32;27.30;;;16.63;;
58338;SDS011;68636;52.704;6.536;2023-05-07T02:15:59;30.23;;;15.70;;
58338;SDS011;68636;52.704;6.536;2023-05-07T02:18:25;26.52;;;15.63;;
58338;SDS011;68636;52.704;6.536;2023-05-07T02:20:51;28.45;;;15.45;;
58338;SDS011;68636;52.704;6.536;2023-05-07T02:23:16;28.17;;;16.52;;
58338;SDS011;68636;52.704;6.536;2023-05-07T02:25:42;27.38;;;16.52;;
58338;SDS011;68636;52.704;6.536;2023-05-07T02:28:08;27.70;;;15.95;;
58338;SDS011;68636;52.704;6.536;2023-05-07T02:30:33;27.60;;;16.25;;
58338;SDS011;68636;52.704;6.536;2023-05-07T02:32:59;26.15;;;14.73;;
58338;SDS011;68636;52.704;6.536;2023-05-07T02:35:25;26.65;;;15.77;;
58338;SDS011;68636;52.704;6.536;2023-05-07T02:37:51;29.48;;;15.65;;
58338;SDS011;68636;52.704;6.536;2023-05-07T02:40:16;29.23;;;15.85;;
58338;SDS011;68636;52.704;6.536;2023-05-07T02:42:42;27.48;;;15.88;;
58338;SDS011;68636;52.704;6.536;2023-05-07T02:45:08;28.10;;;16.42;;
58338;SDS011;68636;52.704;6.536;2023-05-07T02:47:34;32.33;;;16.95;;
58338;SDS011;68636;52.704;6.536;2023-05-07T02:50:00;28.55;;;16.58;;
58338;SDS011;68636;52.704;6.536;2023-05-07T02:52:26;30.70;;;17.15;;
58338;SDS011;68636;52.704;6.536;2023-05-07T02:54:52;30.70;;;17.00;;
58338;SDS011;68636;52.704;6.536;2023-05-07T02:57:17;30.90;;;18.00;;
58338;SDS011;68636;52.704;6.536;2023-05-07T02:59:43;32.13;;;17.35;;
58338;SDS011;68636;52.704;6.536;2023-05-07T03:02:09;35.75;;;18.55;;
58338;SDS011;68636;52.704;6.536;2023-05-07T03:04:35;35.88;;;18.02;;
58338;SDS011;68636;52.704;6.536;2023-05-07T03:07:01;34.15;;;18.00;;
58338;SDS011;68636;52.704;6.536;2023-05-07T03:09:26;32.25;;;17.25;;
58338;SDS011;68636;52.704;6.536;2023-05-07T03:11:52;31.63;;;18.33;;
58338;SDS011;68636;52.704;6.536;2023-05-07T03:14:18;35.03;;;17.98;;
58338;SDS011;68636;52.704;6.536;2023-05-07T03:16:44;33.17;;;18.23;;
58338;SDS011;68636;52.704;6.536;2023-05-07T03:19:12;32.10;;;18.95;;
58338;SDS011;68636;52.704;6.536;2023-05-07T03:21:37;34.53;;;17.83;;
58338;SDS011;68636;52.704;6.536;2023-05-07T03:24:03;35.65;;;17.85;;
58338;SDS011;68636;52.704;6.536;2023-05-07T03:26:29;36.08;;;19.27;;
58338;SDS011;68636;52.704;6.536;2023-05-07T03:28:55;38.58;;;19.85;;
58338;SDS011;68636;52.704;6.536;2023-05-07T03:31:21;37.85;;;19.92;;
58338;SDS011;68636;52.704;6.536;2023-05-07T03:33:50;36.50;;;19.45;;
58338;SDS011;68636;52.704;6.536;2023-05-07T03:36:16;39.47;;;20.10;;
58338;SDS011;68636;52.704;6.536;2023-05-07T03:38:42;39.03;;;20.48;;
58338;SDS011;68636;52.704;6.536;2023-05-07T03:41:08;42.42;;;19.92;;
58338;SDS011;68636;52.704;6.536;2023-05-07T03:43:34;42.15;;;19.80;;
58338;SDS011;68636;52.704;6.536;2023-05-07T03:46:00;35.42;;;18.63;;
58338;SDS011;68636;52.704;6.536;2023-05-07T03:48:25;37.83;;;21.05;;
58338;SDS011;68636;52.704;6.536;2023-05-07T03:50:51;42.33;;;21.65;;
58338;SDS011;68636;52.704;6.536;2023-05-07T03:53:17;40.28;;;22.02;;
58338;SDS011;68636;52.704;6.536;2023-05-07T03:55:43;41.45;;;21.48;;
58338;SDS011;68636;52.704;6.536;2023-05-07T03:58:08;46.45;;;20.95;;
58338;SDS011;68636;52.704;6.536;2023-05-07T04:00:34;41.17;;;22.30;;
58338;SDS011;68636;52.704;6.536;2023-05-07T04:03:03;39.13;;;20.98;;
58338;SDS011;68636;52.704;6.536;2023-05-07T04:05:30;42.05;;;21.98;;
58338;SDS011;68636;52.704;6.536;2023-05-07T04:07:57;42.50;;;21.05;;
58338;SDS011;68636;52.704;6.536;2023-05-07T04:10:23;45.65;;;23.42;;
58338;SDS011;68636;52.704;6.536;2023-05-07T04:12:49;46.90;;;21.83;;
58338;SDS011;68636;52.704;6.536;2023-05-07T04:15:15;45.38;;;22.27;;
58338;SDS011;68636;52.704;6.536;2023-05-07T04:17:40;47.15;;;22.48;;
58338;SDS011;68636;52.704;6.536;2023-05-07T04:20:08;47.63;;;23.90;;
58338;SDS011;68636;52.704;6.536;2023-05-07T04:22:35;44.08;;;21.50;;
58338;SDS011;68636;52.704;6.536;2023-05-07T04:25:02;41.10;;;22.10;;
58338;SDS011;68636;52.704;6.536;2023-05-07T04:27:28;39.75;;;21.15;;
58338;SDS011;68636;52.704;6.536;2023-05-07T04:29:54;46.60;;;23.15;;
58338;SDS011;68636;52.704;6.536;2023-05-07T04:32:23;44.83;;;22.58;;
58338;SDS011;68636;52.704;6.536;2023-05-07T04:34:50;45.95;;;22.92;;
58338;SDS011;68636;52.704;6.536;2023-05-07T04:37:16;44.17;;;22.38;;
58338;SDS011;68636;52.704;6.536;2023-05-07T04:39:42;43.55;;;21.70;;
58338;SDS011;68636;52.704;6.536;2023-05-07T04:42:07;44.10;;;22.42;;
58338;SDS011;68636;52.704;6.536;2023-05-07T04:44:34;48.13;;;22.70;;
58338;SDS011;68636;52.704;6.536;2023-05-07T04:47:02;45.45;;;23.08;;
58338;SDS011;68636;52.704;6.536;2023-05-07T04:49:27;46.72;;;24.13;;
58338;SDS011;68636;52.704;6.536;2023-05-07T04:51:53;45.17;;;23.52;;
58338;SDS011;68636;52.704;6.536;2023-05-07T04:54:19;42.58;;;21.38;;
58338;SDS011;68636;52.704;6.536;2023-05-07T04:56:46;46.40;;;22.17;;
58338;SDS011;68636;52.704;6.536;2023-05-07T04:59:12;42.25;;;22.10;;
58338;SDS011;68636;52.704;6.536;2023-05-07T05:01:37;42.95;;;22.05;;
58338;SDS011;68636;52.704;6.536;2023-05-07T05:04:03;42.60;;;22.25;;
58338;SDS011;68636;52.704;6.536;2023-05-07T05:06:29;44.83;;;22.08;;
58338;SDS011;68636;52.704;6.536;2023-05-07T05:08:55;42.27;;;22.73;;
58338;SDS011;68636;52.704;6.536;2023-05-07T05:11:21;41.80;;;20.83;;
58338;SDS011;68636;52.704;6.536;2023-05-07T05:13:47;41.08;;;21.08;;
58338;SDS011;68636;52.704;6.536;2023-05-07T05:16:14;39.55;;;21.60;;
58338;SDS011;68636;52.704;6.536;2023-05-07T05:18:40;43.60;;;22.00;;
58338;SDS011;68636;52.704;6.536;2023-05-07T05:21:06;38.63;;;20.33;;
58338;SDS011;68636;52.704;6.536;2023-05-07T05:23:32;39.78;;;20.98;;
58338;SDS011;68636;52.704;6.536;2023-05-07T05:25:58;42.28;;;20.17;;
58338;SDS011;68636;52.704;6.536;2023-05-07T05:28:24;39.97;;;20.47;;
58338;SDS011;68636;52.704;6.536;2023-05-07T05:30:49;36.40;;;19.63;;
58338;SDS011;68636;52.704;6.536;2023-05-07T05:33:15;35.28;;;20.05;;
58338;SDS011;68636;52.704;6.536;2023-05-07T05:35:41;36.95;;;19.80;;
58338;SDS011;68636;52.704;6.536;2023-05-07T05:38:07;33.35;;;18.70;;
58338;SDS011;68636;52.704;6.536;2023-05-07T05:40:33;35.80;;;19.53;;
58338;SDS011;68636;52.704;6.536;2023-05-07T05:42:59;36.47;;;19.50;;
58338;SDS011;68636;52.704;6.536;2023-05-07T05:45:25;37.30;;;19.38;;
58338;SDS011;68636;52.704;6.536;2023-05-07T05:47:51;34.60;;;19.70;;
58338;SDS011;68636;52.704;6.536;2023-05-07T05:50:16;39.38;;;20.27;;
58338;SDS011;68636;52.704;6.536;2023-05-07T05:52:42;37.20;;;19.30;;
58338;SDS011;68636;52.704;6.536;2023-05-07T05:55:08;36.55;;;18.90;;
58338;SDS011;68636;52.704;6.536;2023-05-07T05:57:34;37.75;;;18.42;;
58338;SDS011;68636;52.704;6.536;2023-05-07T06:00:00;37.45;;;19.63;;
58338;SDS011;68636;52.704;6.536;2023-05-07T06:04:53;34.80;;;18.07;;
58338;SDS011;68636;52.704;6.536;2023-05-07T06:07:18;37.20;;;18.73;;
58338;SDS011;68636;52.704;6.536;2023-05-07T06:09:44;36.20;;;19.65;;
58338;SDS011;68636;52.704;6.536;2023-05-07T06:12:11;34.72;;;19.55;;
58338;SDS011;68636;52.704;6.536;2023-05-07T06:14:36;37.17;;;19.77;;
58338;SDS011;68636;52.704;6.536;2023-05-07T06:17:02;39.92;;;19.98;;
58338;SDS011;68636;52.704;6.536;2023-05-07T06:19:28;34.60;;;18.17;;
58338;SDS011;68636;52.704;6.536;2023-05-07T06:21:54;36.90;;;19.67;;
58338;SDS011;68636;52.704;6.536;2023-05-07T06:24:21;39.03;;;21.05;;
58338;SDS011;68636;52.704;6.536;2023-05-07T06:26:47;34.78;;;19.10;;
58338;SDS011;68636;52.704;6.536;2023-05-07T06:29:13;37.38;;;20.17;;
58338;SDS011;68636;52.704;6.536;2023-05-07T06:31:39;36.38;;;19.83;;
58338;SDS011;68636;52.704;6.536;2023-05-07T06:34:05;36.85;;;19.65;;
58338;SDS011;68636;52.704;6.536;2023-05-07T06:36:31;33.47;;;18.98;;
58338;SDS011;68636;52.704;6.536;2023-05-07T06:38:56;35.85;;;17.63;;
58338;SDS011;68636;52.704;6.536;2023-05-07T06:41:22;37.85;;;19.67;;
58338;SDS011;68636;52.704;6.536;2023-05-07T06:43:48;36.05;;;20.38;;
58338;SDS011;68636;52.704;6.536;2023-05-07T06:46:14;37.90;;;20.17;;
58338;SDS011;68636;52.704;6.536;2023-05-07T06:48:40;41.30;;;20.45;;
58338;SDS011;68636;52.704;6.536;2023-05-07T06:51:06;40.47;;;19.90;;
58338;SDS011;68636;52.704;6.536;2023-05-07T06:53:32;35.63;;;19.73;;
58338;SDS011;68636;52.704;6.536;2023-05-07T06:55:57;36.83;;;20.52;;
58338;SDS011;68636;52.704;6.536;2023-05-07T06:58:23;37.88;;;20.70;;
58338;SDS011;68636;52.704;6.536;2023-05-07T07:00:49;37.72;;;19.60;;
58338;SDS011;68636;52.704;6.536;2023-05-07T07:03:15;37.05;;;20.00;;
58338;SDS011;68636;52.704;6.536;2023-05-07T07:05:41;41.22;;;21.10;;
58338;SDS011;68636;52.704;6.536;2023-05-07T07:08:07;37.83;;;21.10;;
58338;SDS011;68636;52.704;6.536;2023-05-07T07:10:32;41.20;;;20.60;;
58338;SDS011;68636;52.704;6.536;2023-05-07T07:12:58;41.55;;;21.75;;
58338;SDS011;68636;52.704;6.536;2023-05-07T07:15:24;38.45;;;20.60;;
58338;SDS011;68636;52.704;6.536;2023-05-07T07:17:51;37.70;;;20.55;;
58338;SDS011;68636;52.704;6.536;2023-05-07T07:20:16;37.00;;;20.73;;
58338;SDS011;68636;52.704;6.536;2023-05-07T07:22:42;35.33;;;20.38;;
58338;SDS011;68636;52.704;6.536;2023-05-07T07:25:08;42.67;;;20.98;;
58338;SDS011;68636;52.704;6.536;2023-05-07T07:27:34;36.25;;;18.52;;
58338;SDS011;68636;52.704;6.536;2023-05-07T07:30:00;38.13;;;20.60;;
58338;SDS011;68636;52.704;6.536;2023-05-07T07:32:25;38.72;;;21.23;;
58338;SDS011;68636;52.704;6.536;2023-05-07T07:34:51;36.35;;;18.20;;
58338;SDS011;68636;52.704;6.536;2023-05-07T07:37:17;34.88;;;19.83;;
58338;SDS011;68636;52.704;6.536;2023-05-07T07:39:43;36.30;;;21.38;;
58338;SDS011;68636;52.704;6.536;2023-05-07T07:42:08;36.55;;;17.85;;
58338;SDS011;68636;52.704;6.536;2023-05-07T07:44:34;37.20;;;19.60;;
58338;SDS011;68636;52.704;6.536;2023-05-07T07:47:00;36.28;;;20.80;;
58338;SDS011;68636;52.704;6.536;2023-05-07T07:49:26;37.35;;;19.35;;
58338;SDS011;68636;52.704;6.536;2023-05-07T07:51:52;38.83;;;20.63;;
58338;SDS011;68636;52.704;6.536;2023-05-07T07:54:17;37.80;;;20.48;;
58338;SDS011;68636;52.704;6.536;2023-05-07T07:56:43;34.60;;;20.90;;
58338;SDS011;68636;52.704;6.536;2023-05-07T07:59:09;34.03;;;20.17;;
58338;SDS011;68636;52.704;6.536;2023-05-07T08:01:35;40.25;;;21.35;;
58338;SDS011;68636;52.704;6.536;2023-05-07T08:04:00;36.70;;;20.70;;
58338;SDS011;68636;52.704;6.536;2023-05-07T08:06:28;38.42;;;20.60;;
58338;SDS011;68636;52.704;6.536;2023-05-07T08:08:54;38.30;;;21.87;;
58338;SDS011;68636;52.704;6.536;2023-05-07T08:11:20;31.50;;;16.88;;
58338;SDS011;68636;52.704;6.536;2023-05-07T08:13:46;38.13;;;21.20;;
58338;SDS011;68636;52.704;6.536;2023-05-07T08:16:12;37.20;;;21.33;;
58338;SDS011;68636;52.704;6.536;2023-05-07T08:18:38;36.70;;;20.67;;
58338;SDS011;68636;52.704;6.536;2023-05-07T08:21:04;33.83;;;20.23;;
58338;SDS011;68636;52.704;6.536;2023-05-07T08:23:30;35.30;;;20.80;;
58338;SDS011;68636;52.704;6.536;2023-05-07T08:25:56;36.40;;;20.60;;
58338;SDS011;68636;52.704;6.536;2023-05-07T08:28:22;35.47;;;19.98;;
58338;SDS011;68636;52.704;6.536;2023-05-07T08:30:49;36.85;;;20.48;;
58338;SDS011;68636;52.704;6.536;2023-05-07T08:33:15;34.22;;;19.73;;
58338;SDS011;68636;52.704;6.536;2023-05-07T08:35:41;33.33;;;20.30;;
58338;SDS011;68636;52.704;6.536;2023-05-07T08:38:07;35.47;;;20.52;;
58338;SDS011;68636;52.704;6.536;2023-05-07T08:40:36;37.30;;;20.70;;
58338;SDS011;68636;52.704;6.536;2023-05-07T08:43:03;36.60;;;20.38;;
58338;SDS011;68636;52.704;6.536;2023-05-07T08:45:31;35.70;;;20.38;;
58338;SDS011;68636;52.704;6.536;2023-05-07T08:47:59;31.20;;;17.42;;
58338;SDS011;68636;52.704;6.536;2023-05-07T08:50:28;35.15;;;21.27;;
58338;SDS011;68636;52.704;6.536;2023-05-07T08:52:55;37.13;;;21.35;;
58338;SDS011;68636;52.704;6.536;2023-05-07T08:55:22;37.22;;;21.25;;
58338;SDS011;68636;52.704;6.536;2023-05-07T08:57:50;37.22;;;20.92;;
58338;SDS011;68636;52.704;6.536;2023-05-07T09:00:17;37.28;;;20.83;;
58338;SDS011;68636;52.704;6.536;2023-05-07T09:02:43;35.45;;;21.00;;
58338;SDS011;68636;52.704;6.536;2023-05-07T09:05:09;36.67;;;20.98;;
58338;SDS011;68636;52.704;6.536;2023-05-07T09:07:35;37.70;;;21.67;;
58338;SDS011;68636;52.704;6.536;2023-05-07T09:10:02;36.65;;;20.52;;
58338;SDS011;68636;52.704;6.536;2023-05-07T09:12:29;35.28;;;21.15;;
58338;SDS011;68636;52.704;6.536;2023-05-07T09:14:55;38.67;;;20.95;;
58338;SDS011;68636;52.704;6.536;2023-05-07T09:17:21;36.03;;;20.83;;
58338;SDS011;68636;52.704;6.536;2023-05-07T09:19:47;37.15;;;21.33;;
58338;SDS011;68636;52.704;6.536;2023-05-07T09:22:13;32.45;;;19.27;;
58338;SDS011;68636;52.704;6.536;2023-05-07T09:24:39;36.43;;;20.90;;
58338;SDS011;68636;52.704;6.536;2023-05-07T09:27:05;35.67;;;19.60;;
58338;SDS011;68636;52.704;6.536;2023-05-07T09:29:33;33.65;;;19.95;;
58338;SDS011;68636;52.704;6.536;2023-05-07T09:32:01;30.48;;;17.23;;
58338;SDS011;68636;52.704;6.536;2023-05-07T09:34:28;33.78;;;18.98;;
58338;SDS011;68636;52.704;6.536;2023-05-07T09:36:55;30.33;;;19.10;;
58338;SDS011;68636;52.704;6.536;2023-05-07T09:39:25;33.30;;;19.52;;
58338;SDS011;68636;52.704;6.536;2023-05-07T09:41:51;37.20;;;19.98;;
58338;SDS011;68636;52.704;6.536;2023-05-07T09:44:20;35.20;;;18.83;;
58338;SDS011;68636;52.704;6.536;2023-05-07T09:49:18;32.85;;;18.52;;
58338;SDS011;68636;52.704;6.536;2023-05-07T09:51:48;31.73;;;19.27;;
58338;SDS011;68636;52.704;6.536;2023-05-07T09:54:16;31.60;;;19.20;;
58338;SDS011;68636;52.704;6.536;2023-05-07T09:56:43;32.28;;;19.27;;
58338;SDS011;68636;52.704;6.536;2023-05-07T09:59:13;33.15;;;18.75;;
58338;SDS011;68636;52.704;6.536;2023-05-07T10:01:41;30.83;;;19.15;;
58338;SDS011;68636;52.704;6.536;2023-05-07T10:04:08;35.45;;;20.10;;
58338;SDS011;68636;52.704;6.536;2023-05-07T10:06:35;33.33;;;18.40;;
58338;SDS011;68636;52.704;6.536;2023-05-07T10:09:02;30.85;;;18.42;;
58338;SDS011;68636;52.704;6.536;2023-05-07T10:11:29;28.58;;;17.85;;
58338;SDS011;68636;52.704;6.536;2023-05-07T10:13:55;32.25;;;18.58;;
58338;SDS011;68636;52.704;6.536;2023-05-07T10:16:21;30.92;;;18.67;;
58338;SDS011;68636;52.704;6.536;2023-05-07T10:18:48;33.15;;;19.08;;
58338;SDS011;68636;52.704;6.536;2023-05-07T10:21:19;30.65;;;18.73;;
58338;SDS011;68636;52.704;6.536;2023-05-07T10:23:51;27.65;;;17.98;;
58338;SDS011;68636;52.704;6.536;2023-05-07T10:26:23;30.38;;;18.13;;
58338;SDS011;68636;52.704;6.536;2023-05-07T10:28:52;28.13;;;17.55;;
58338;SDS011;68636;52.704;6.536;2023-05-07T10:34:09;28.40;;;17.92;;
58338;SDS011;68636;52.704;6.536;2023-05-07T10:36:37;28.63;;;17.55;;
58338;SDS011;68636;52.704;6.536;2023-05-07T10:39:04;27.50;;;17.00;;
58338;SDS011;68636;52.704;6.536;2023-05-07T10:41:31;25.40;;;15.55;;
58338;SDS011;68636;52.704;6.536;2023-05-07T10:43:57;25.83;;;15.97;;
58338;SDS011;68636;52.704;6.536;2023-05-07T10:46:26;27.13;;;16.92;;
58338;SDS011;68636;52.704;6.536;2023-05-07T10:51:33;29.90;;;16.73;;
58338;SDS011;68636;52.704;6.536;2023-05-07T10:56:35;26.38;;;16.45;;
58338;SDS011;68636;52.704;6.536;2023-05-07T11:01:49;28.60;;;17.45;;
58338;SDS011;68636;52.704;6.536;2023-05-07T11:04:16;24.45;;;15.90;;
58338;SDS011;68636;52.704;6.536;2023-05-07T11:07:03;26.50;;;15.27;;
58338;SDS011;68636;52.704;6.536;2023-05-07T11:12:16;22.15;;;13.50;;
58338;SDS011;68636;52.704;6.536;2023-05-07T11:15:01;26.67;;;16.63;;
58338;SDS011;68636;52.704;6.536;2023-05-07T11:17:31;25.20;;;16.25;;
58338;SDS011;68636;52.704;6.536;2023-05-07T11:19:59;26.05;;;15.93;;
58338;SDS011;68636;52.704;6.536;2023-05-07T11:25:01;21.17;;;13.68;;
58338;SDS011;68636;52.704;6.536;2023-05-07T11:27:27;23.73;;;14.48;;
58338;SDS011;68636;52.704;6.536;2023-05-07T11:32:23;23.73;;;13.88;;
58338;SDS011;68636;52.704;6.536;2023-05-07T11:34:53;24.50;;;15.82;;
58338;SDS011;68636;52.704;6.536;2023-05-07T11:37:20;23.77;;;14.63;;
58338;SDS011;68636;52.704;6.536;2023-05-07T11:39:47;20.95;;;10.93;;
58338;SDS011;68636;52.704;6.536;2023-05-07T11:42:32;22.80;;;14.27;;
58338;SDS011;68636;52.704;6.536;2023-05-07T11:45:05;22.45;;;13.57;;
58338;SDS011;68636;52.704;6.536;2023-05-07T11:47:32;19.15;;;13.65;;
58338;SDS011;68636;52.704;6.536;2023-05-07T11:50:03;24.13;;;15.70;;
58338;SDS011;68636;52.704;6.536;2023-05-07T11:52:30;23.48;;;15.60;;
58338;SDS011;68636;52.704;6.536;2023-05-07T11:54:57;25.15;;;15.15;;
58338;SDS011;68636;52.704;6.536;2023-05-07T11:57:25;25.25;;;15.35;;
58338;SDS011;68636;52.704;6.536;2023-05-07T11:59:55;23.35;;;14.82;;
58338;SDS011;68636;52.704;6.536;2023-05-07T12:02:21;23.88;;;15.23;;
58338;SDS011;68636;52.704;6.536;2023-05-07T12:04:47;23.20;;;15.40;;
58338;SDS011;68636;52.704;6.536;2023-05-07T12:07:13;22.90;;;14.83;;
58338;SDS011;68636;52.704;6.536;2023-05-07T12:12:09;23.80;;;16.00;;
58338;SDS011;68636;52.704;6.536;2023-05-07T12:14:39;25.25;;;16.38;;
58338;SDS011;68636;52.704;6.536;2023-05-07T12:17:05;26.05;;;15.23;;
58338;SDS011;68636;52.704;6.536;2023-05-07T12:19:33;23.25;;;14.52;;
58338;SDS011;68636;52.704;6.536;2023-05-07T12:21:59;23.10;;;13.77;;
58338;SDS011;68636;52.704;6.536;2023-05-07T12:24:26;22.75;;;14.82;;
58338;SDS011;68636;52.704;6.536;2023-05-07T12:26:52;22.47;;;14.70;;
58338;SDS011;68636;52.704;6.536;2023-05-07T12:29:21;21.30;;;15.20;;
58338;SDS011;68636;52.704;6.536;2023-05-07T12:31:47;22.02;;;15.10;;
58338;SDS011;68636;52.704;6.536;2023-05-07T12:34:15;23.30;;;14.98;;
58338;SDS011;68636;52.704;6.536;2023-05-07T12:36:41;22.43;;;15.67;;
58338;SDS011;68636;52.704;6.536;2023-05-07T12:39:07;22.40;;;15.73;;
58338;SDS011;68636;52.704;6.536;2023-05-07T12:44:21;21.42;;;14.90;;
58338;SDS011;68636;52.704;6.536;2023-05-07T12:46:48;23.95;;;15.63;;
58338;SDS011;68636;52.704;6.536;2023-05-07T12:49:14;24.00;;;15.43;;
58338;SDS011;68636;52.704;6.536;2023-05-07T12:51:40;25.80;;;16.53;;
58338;SDS011;68636;52.704;6.536;2023-05-07T12:54:06;22.03;;;15.27;;
58338;SDS011;68636;52.704;6.536;2023-05-07T12:56:35;22.67;;;15.30;;
58338;SDS011;68636;52.704;6.536;2023-05-07T12:59:00;23.92;;;16.48;;
58338;SDS011;68636;52.704;6.536;2023-05-07T13:01:29;24.17;;;15.30;;
58338;SDS011;68636;52.704;6.536;2023-05-07T13:03:58;24.30;;;16.08;;
58338;SDS011;68636;52.704;6.536;2023-05-07T13:06:26;25.58;;;15.75;;
58338;SDS011;68636;52.704;6.536;2023-05-07T13:08:51;23.90;;;15.50;;
58338;SDS011;68636;52.704;6.536;2023-05-07T13:11:18;22.98;;;14.57;;
58338;SDS011;68636;52.704;6.536;2023-05-07T13:13:43;25.50;;;15.03;;
58338;SDS011;68636;52.704;6.536;2023-05-07T13:16:10;21.40;;;14.57;;
58338;SDS011;68636;52.704;6.536;2023-05-07T13:18:38;23.50;;;15.70;;
58338;SDS011;68636;52.704;6.536;2023-05-07T13:21:05;26.33;;;16.00;;
58338;SDS011;68636;52.704;6.536;2023-05-07T13:23:31;24.92;;;14.80;;
58338;SDS011;68636;52.704;6.536;2023-05-07T13:25:57;22.43;;;14.17;;
58338;SDS011;68636;52.704;6.536;2023-05-07T13:28:23;22.07;;;14.47;;
58338;SDS011;68636;52.704;6.536;2023-05-07T13:30:50;21.05;;;13.15;;
58338;SDS011;68636;52.704;6.536;2023-05-07T13:35:42;19.90;;;12.80;;
58338;SDS011;68636;52.704;6.536;2023-05-07T13:38:09;22.23;;;14.57;;
58338;SDS011;68636;52.704;6.536;2023-05-07T13:40:34;21.27;;;15.07;;
58338;SDS011;68636;52.704;6.536;2023-05-07T13:43:00;22.13;;;15.00;;
58338;SDS011;68636;52.704;6.536;2023-05-07T13:45:29;23.55;;;14.50;;
58338;SDS011;68636;52.704;6.536;2023-05-07T13:47:55;22.27;;;15.63;;
58338;SDS011;68636;52.704;6.536;2023-05-07T13:50:22;22.05;;;15.07;;
58338;SDS011;68636;52.704;6.536;2023-05-07T13:52:48;22.70;;;15.87;;
58338;SDS011;68636;52.704;6.536;2023-05-07T13:55:17;22.08;;;14.57;;
58338;SDS011;68636;52.704;6.536;2023-05-07T14:00:09;21.95;;;14.25;;
58338;SDS011;68636;52.704;6.536;2023-05-07T14:02:35;22.77;;;15.45;;
58338;SDS011;68636;52.704;6.536;2023-05-07T14:05:01;20.17;;;15.07;;
58338;SDS011;68636;52.704;6.536;2023-05-07T14:07:27;23.43;;;15.47;;
58338;SDS011;68636;52.704;6.536;2023-05-07T14:09:53;23.03;;;15.43;;
58338;SDS011;68636;52.704;6.536;2023-05-07T14:12:20;22.55;;;15.45;;
58338;SDS011;68636;52.704;6.536;2023-05-07T14:14:46;21.80;;;15.30;;
58338;SDS011;68636;52.704;6.536;2023-05-07T14:17:12;20.17;;;13.27;;
58338;SDS011;68636;52.704;6.536;2023-05-07T14:19:38;21.05;;;14.77;;
58338;SDS011;68636;52.704;6.536;2023-05-07T14:22:03;18.70;;;14.33;;
58338;SDS011;68636;52.704;6.536;2023-05-07T14:24:29;19.63;;;14.10;;
58338;SDS011;68636;52.704;6.536;2023-05-07T14:26:55;18.90;;;13.27;;
58338;SDS011;68636;52.704;6.536;2023-05-07T14:29:21;19.73;;;13.07;;
58338;SDS011;68636;52.704;6.536;2023-05-07T14:31:47;21.33;;;13.18;;
58338;SDS011;68636;52.704;6.536;2023-05-07T14:34:13;18.30;;;13.33;;
58338;SDS011;68636;52.704;6.536;2023-05-07T14:36:39;17.83;;;13.20;;
58338;SDS011;68636;52.704;6.536;2023-05-07T14:39:05;17.00;;;12.37;;
58338;SDS011;68636;52.704;6.536;2023-05-07T14:41:31;18.80;;;12.87;;
58338;SDS011;68636;52.704;6.536;2023-05-07T14:43:58;21.73;;;13.48;;
58338;SDS011;68636;52.704;6.536;2023-05-07T14:46:24;18.93;;;13.30;;
58338;SDS011;68636;52.704;6.536;2023-05-07T14:48:49;18.03;;;13.33;;
58338;SDS011;68636;52.704;6.536;2023-05-07T14:51:15;18.83;;;13.67;;